Julington Creek, Florida
Current Conditions -  °F | °C
As of 10:53 AM on Saturday 22 Nov 2014 (Local Time) from KNIP Reporting Station
Broken Clouds Broken Clouds  
Wind Chill: 75°   Ceiling: 10000
Heat Index: 75°   Visibility: 10mi
Dew Point: 60°   Wind: 18mph
Humidity: 60%   Direction: 80°E
Pressure: 30.33"   Gusts: 24mph
Location:  30.0735°N, 81.5808°W
Report Text: KNIP 221553Z 08016G21KT 10SM FEW029 SCT041 BKN100 24/16 A3033 RMK AO2 SLP264 T02390156
Loading
Personal Weather Stations






























Interactive Weather Map New forecast layout! Learn more

10-Day Weather Forecast

Advertisements
Track Severe Weather on mobile